KDLS/DLS METAR and TAF weather

Enter ICAO airport designator
Station Type Date Time Source
KDLS METAR 2019/05/27 09:53 UTC NOAA

KDLS 270953Z AUTO 33012KT 10SM OVC110 15/11 A2988 RMK AO2 SLP119 T01500111


Station Type Date Time Source
KDLS Decoded METAR 2019/05/27 09:53 UTC NOAA

THE DALLES MUNICIPAL AIRPORT , OR, United States (KDLS) 45-37N 121-10W 71M
May 27, 2019 - 05:53 AM EDT / 2019.05.27 0953 UTC
Wind: from the NNW (330 degrees) at 14 MPH (12 KT):0
Visibility: 10 mile(s):0
Sky conditions: overcast
Temperature: 59.0 F (15.0 C)
Dew Point: 52.0 F (11.1 C)
Relative Humidity: 77%
Pressure (altimeter): 29.88 in. Hg (1011 hPa)
ob: KDLS 270953Z AUTO 33012KT 10SM OVC110 15/11 A2988 RMK AO2 SLP119 T01500111
cycle: 10

Station Type Date Time Source
KDLS TAF 2019/05/27 06:22 UTC NOAA

TAF KDLS 270520Z 2706/2806 31005KT P6SM SCT100
TEMPO 2706/2709 -SHRA BKN080
FM272000 33010G20KT P6SM VCSH SCT080

Example: see airport list